Terminal Aerodrome Forecast
Issued by NWS

Home | Current Version | Previous Version | Text Only | Print | Product List | Glossary On
Versions: 1 2 3 4 5 6 7 8 9 10 11 12 13
000
FTUS45 KGJT 251729
TAFMTJ
TAF
KMTJ 251729Z 2518/2618 VRB06KT P6SM SKC
     FM251900 26008KT P6SM SKC
      TEMPO 2520/2524 22010G18KT
     FM260200 20007KT P6SM SKC
     FM260400 15009KT P6SM SKC=

USA.gov is the U.S. government's official web portal to all federal, state and local government web resources and services.